• Join FlightAware (Why Join?)
  • Login
  • US Flag 
12:40AM EDT


 

Airport Tracker/Info


-or-


 

Live Flight TrackerFlight Track Log ✈ BAW283 ✈ 01-Jul-2013 ✈ EGLL / LHR - KLAX

Flight Track Log - Related Links

Times and Time Zones

All times are in EDT time to prevent confusion due to time zone crossing. See the BAW283 flight status page for this flight to view local times or setup timezone preferences in your user account.

Time Position Orientation Groundspeed Altitude Reporting Facility
EDT Latitude Longitude Course Direction KTS MPH feet Rate Location/Type
07:13AM 51.4710 -0.4850 North 22 25  Level FlightAware
07:14AM 51.4700 -0.4850 180° South 24 28  Level FlightAware
07:15AM 51.4710 -0.4840 32° Northeast 25 29  Level FlightAware
07:16AM 51.4670 -0.4770 310° West 32 37  Level FlightAware
07:17AM 51.6306 -0.7916 310° West  Level FlightAware Approximate
07:18AM 51.4670 -0.4670 90° East 30 35  Level FlightAware
07:18AM 51.4710 -0.4670 360° North 30 35  Level FlightAware
07:20AM 51.4670 -0.4570 123° Southeast 28 32  Level FlightAware
07:22AM 51.6284 -0.7710 310° West  Level FlightAware Approximate
07:22AM 51.4710 -0.4450 310° West 32 37  Level FlightAware
07:24AM 51.4680 -0.4410 140° Southeast 18 21 60 Level FlightAware
07:25AM 51.4670 -0.4400 148° Southeast 16 18 60 Level FlightAware
07:25AM 51.4670 -0.4380 90° East 20 23 120 Level FlightAware
07:26AM 51.4670 -0.4370 90° East 14 16 120 Level FlightAware
07:28AM 51.6048 -0.7074 309° West  Level FlightAware Approximate
07:29AM 51.6848 -0.8656 309° West  Level FlightAware Approximate
07:29AM 51.4650 -0.4520 309° West 120 138  Level FlightAware
07:29AM 51.4650 -0.4900 270° West 164 189 500 1,140 Climbing FlightAware
07:30AM 51.4702 -0.5258 283° West 173 199 1,200 1,260 Climbing FlightAware ADS-B
07:30AM 51.4793 -0.5540 297° West 191 220 1,600 1,380 Climbing FlightAware ADS-B
07:30AM 51.4890 -0.5847 297° West 196 226 2,300 1,800 Climbing FlightAware ADS-B
07:31AM 51.4954 -0.6040 298° West 195 224 2,800 1,920 Climbing FlightAware ADS-B
07:31AM 51.5019 -0.6234 298° West 197 227 3,300 1,980 Climbing FlightAware ADS-B
07:31AM 51.5092 -0.6467 297° West 196 226 3,900 1,920 Climbing FlightAware ADS-B
07:31AM 51.5134 -0.6596 297° West 199 229 4,200 1,680 Climbing FlightAware ADS-B
07:31AM 51.5152 -0.6648 299° West 200 230 4,300 1,680 Climbing FlightAware ADS-B
07:31AM 51.5172 -0.6684 312° West 201 231 4,400 1,680 Climbing FlightAware ADS-B
07:32AM 51.5194 -0.6716 318° Northwest 205 236 4,500 1,680 Climbing FlightAware ADS-B
07:32AM 51.5229 -0.6760 322° Northwest 210 242 4,600 840 Climbing FlightAware ADS-B
07:32AM 51.5257 -0.6780 336° Northwest 216 249 4,600 720 Level FlightAware ADS-B
07:32AM 51.5301 -0.6800 344° North 222 255 4,700 960 Climbing FlightAware ADS-B
07:32AM 51.5380 -0.6821 350° North 230 265 4,800 780 Climbing FlightAware ADS-B
07:32AM 51.5457 -0.6832 355° North 238 274 4,900 900 Climbing FlightAware ADS-B
07:32AM 51.5522 -0.6836 358° North 245 282 5,000 1,140 Climbing FlightAware ADS-B
07:32AM 51.5702 -0.6841 359° North 259 298 5,300 1,320 Climbing FlightAware ADS-B
07:33AM 51.5892 -0.6851 358° North 271 312 5,700 1,680 Climbing FlightAware ADS-B
07:33AM 51.6117 -0.6870 357° North 287 330 6,200 1,980 Climbing FlightAware ADS-B
07:33AM 51.6332 -0.6892 356° North 299 344 6,800 1,740 Climbing FlightAware ADS-B
07:33AM 51.6546 -0.6918 356° North 312 359 7,100 1,020 Climbing FlightAware ADS-B
07:34AM 51.6658 -0.6929 356° North 321 369 7,200 960 Climbing FlightAware ADS-B
07:34AM 51.6720 -0.6927 North 328 377 7,300 660 Climbing FlightAware ADS-B
07:34AM 51.6792 -0.6917 North 338 389 7,300 660 Level FlightAware ADS-B
07:34AM 51.6859 -0.6892 13° North 344 396 7,400 900 Climbing FlightAware ADS-B
07:34AM 51.6996 -0.6840 13° North 355 409 7,500 960 Climbing FlightAware ADS-B
07:34AM 51.7241 -0.6720 17° North 368 423 7,800 1,320 Climbing FlightAware ADS-B
07:34AM 51.7506 -0.6606 15° North 378 435 8,200 1,740 Climbing FlightAware ADS-B
07:35AM 51.7807 -0.6467 16° North 385 443 8,800 2,160 Climbing FlightAware ADS-B
07:35AM 51.8067 -0.6351 15° North 389 448 9,400 2,400 Climbing FlightAware ADS-B
07:35AM 51.8330 -0.6232 16° North 393 452 10,000 2,160 Climbing FlightAware ADS-B
07:36AM 51.8929 -0.5957 16° North 401 461 11,200 2,100 Climbing FlightAware ADS-B
07:36AM 51.9492 -0.5688 16° North 409 471 12,300 1,980 Climbing FlightAware ADS-B
07:37AM 52.0055 -0.5424 16° North 415 478 13,300 1,920 Climbing FlightAware ADS-B
07:37AM 52.0282 -0.5351 11° North 414 476 13,700 1,800 Climbing FlightAware ADS-B
07:37AM 52.0504 -0.5335 North 411 473 14,000 1,920 Climbing FlightAware ADS-B
07:37AM 52.0818 -0.5404 352° North 404 465 14,600 2,040 Climbing FlightAware ADS-B
07:38AM 52.0919 -0.5445 346° North 403 464 14,800 1,980 Climbing FlightAware ADS-B
07:38AM 52.1457 -0.5915 332° Northwest 395 455 15,900 1,860 Climbing FlightAware ADS-B
07:39AM 52.1965 -0.6466 326° Northwest 401 461 16,900 1,740 Climbing FlightAware ADS-B
07:39AM 52.2464 -0.7004 327° Northwest 408 470 17,800 1,620 Climbing FlightAware ADS-B
07:40AM 52.2980 -0.7546 327° Northwest 414 476 18,700 1,680 Climbing FlightAware ADS-B
07:41AM 52.3784 -0.8408 327° Northwest 419 482 20,100 1,500 Climbing FlightAware ADS-B
07:41AM 52.4680 -0.9360 327° Northwest 430 495 21,400 1,380 Climbing FlightAware
07:42AM 52.5047 -0.9743 328° Northwest 425 489 21,900 1,440 Climbing FlightAware ADS-B
07:42AM 52.5596 -1.0314 328° Northwest 438 504 22,700 1,500 Climbing FlightAware ADS-B
07:42AM 52.5727 -1.0432 331° Northwest 441 507 22,900 1,440 Climbing FlightAware ADS-B
07:43AM 52.6187 -1.0822 333° Northwest 446 513 23,500 1,320 Climbing FlightAware ADS-B
07:43AM 52.6785 -1.1279 335° Northwest 450 518 24,200 1,260 Climbing FlightAware ADS-B
07:44AM 52.7395 -1.1740 335° Northwest 453 521 24,900 1,080 Climbing FlightAware ADS-B
07:45AM 52.8462 -1.2572 335° Northwest 463 533 25,800 840 Climbing FlightAware ADS-B
07:45AM 52.9090 -1.3060 335° Northwest 470 541 26,200 780 Climbing FlightAware
07:46AM 52.9601 -1.3463 335° Northwest 467 537 26,600 960 Climbing FlightAware ADS-B
07:46AM 53.0306 -1.4009 335° Northwest 467 537 27,200 1,020 Climbing FlightAware ADS-B
07:47AM 53.1360 -1.4830 335° Northwest 485 558 28,100 960 Climbing FlightAware
07:47AM 53.1560 -1.4994 334° Northwest 483 556 28,200 1,260 Climbing FlightAware ADS-B
07:48AM 53.2587 -1.5809 335° Northwest 487 560 29,400 1,380 Climbing FlightAware ADS-B
07:49AM 53.3205 -1.6303 334° Northwest 487 560 30,100 1,200 Climbing FlightAware ADS-B
07:50AM 53.4110 -1.7059 334° Northwest 473 544 31,000 1,200 Climbing FlightAware ADS-B
07:50AM 53.4550 -1.7490 330° Northwest 471 542 31,500 1,020 Climbing FlightAware ADS-B
07:51AM 53.5160 -1.8116 329° Northwest 471 542 32,000 1,020 Climbing FlightAware ADS-B
07:51AM 53.5723 -1.8709 328° Northwest 467 537 32,600 900 Climbing FlightAware ADS-B
07:52AM 53.6530 -1.9550 328° Northwest 466 536 33,200 780 Climbing FlightAware
07:52AM 53.7170 -2.0220 328° Northwest 465 535 33,700 660 Climbing FlightAware
07:53AM 53.7830 -2.0930 328° Northwest 466 536 34,000 240 Climbing FlightAware
07:54AM 53.8540 -2.1710 327° Northwest 467 537 34,000  Level FlightAware
07:54AM 53.9350 -2.2590 327° Northwest 470 541 34,000  Level FlightAware
07:55AM 54.0060 -2.3380 327° Northwest 472 543 34,000  Level FlightAware
07:56AM 54.0820 -2.4220 327° Northwest 474 545 34,000  Level FlightAware
07:56AM 54.1590 -2.5070 327° Northwest 474 545 34,000  Level FlightAware
07:57AM 54.2140 -2.5690 327° Northwest 475 547 34,000  Level FlightAware
07:58AM 54.3090 -2.6760 327° Northwest 471 542 34,000  Level FlightAware
07:58AM 54.3710 -2.7360 331° Northwest 472 543 34,000  Level FlightAware
07:59AM 54.4650 -2.8120 335° Northwest 472 543 34,000  Level FlightAware
08:00AM 54.5520 -2.8800 336° Northwest 473 544 34,000  Level FlightAware
08:01AM 54.6350 -2.9470 335° Northwest 472 543 34,000  Level FlightAware
08:01AM 54.7130 -3.0090 335° Northwest 471 542 34,000  Level FlightAware
08:02AM 54.7980 -3.0790 335° Northwest 471 542 34,000  Level FlightAware
08:02AM 54.8520 -3.1250 334° Northwest 470 541 34,000  Level FlightAware
08:03AM 54.9310 -3.1900 335° Northwest 470 541 34,000  Level FlightAware
08:04AM 55.0160 -3.2610 334° Northwest 469 540 34,000  Level FlightAware
08:04AM 55.0690 -3.3050 335° Northwest 468 539 34,000  Level FlightAware
08:05AM 55.1660 -3.3870 334° Northwest 468 539 34,000  Level FlightAware
08:06AM 55.2510 -3.4580 335° Northwest 468 539 34,000  Level FlightAware
08:07AM 55.3370 -3.5320 334° Northwest 468 539 34,000  Level FlightAware
08:07AM 55.4130 -3.5960 334° Northwest 470 541 34,000  Level FlightAware
08:08AM 55.4960 -3.6670 334° Northwest 470 541 34,000  Level FlightAware
08:09AM 55.5750 -3.7340 334° Northwest 470 541 34,000  Level FlightAware
08:09AM 55.6340 -3.7860 334° Northwest 468 539 34,000  Level FlightAware
08:10AM 55.7110 -3.8510 335° Northwest 469 540 34,000  Level FlightAware
08:10AM 55.7950 -3.9240 334° Northwest 469 540 34,000  Level FlightAware
08:11AM 55.8550 -3.9760 334° Northwest 470 541 34,000  Level FlightAware
08:12AM 55.9440 -4.0550 334° Northwest 468 539 34,000  Level FlightAware
08:12AM 56.0200 -4.1210 334° Northwest 466 536 34,000  Level FlightAware
08:13AM 56.0950 -4.1960 331° Northwest 464 534 34,000  Level FlightAware
08:14AM 56.1510 -4.2530 330° Northwest 464 534 34,000  Level FlightAware
08:14AM 56.2250 -4.3290 330° Northwest 464 534 34,000  Level FlightAware
08:15AM 56.3290 -4.4320 331° Northwest 459 528 34,000  Level FlightAware
08:16AM 56.4030 -4.5080 330° Northwest 464 534 34,000  Level FlightAware
08:16AM 56.4600 -4.5660 331° Northwest 463 533 34,000  Level FlightAware
08:17AM 56.5430 -4.6490 331° Northwest 458 527 34,000  Level FlightAware
08:17AM 56.5890 -4.6970 330° Northwest 449 517 34,000  Level FlightAware
08:18AM 56.6900 -4.8000 331° Northwest 447 514 34,000  Level FlightAware
08:19AM 56.7440 -4.8560 330° Northwest 445 512 34,000  Level FlightAware
08:20AM 56.8170 -4.9320 330° Northwest 443 510 34,000  Level FlightAware
08:20AM 56.8690 -4.9860 330° Northwest 448 516 34,000  Level FlightAware
08:21AM 56.9700 -5.0910 330° Northwest 443 510 34,000  Level FlightAware
08:21AM 57.0220 -5.1460 330° Northwest 451 519 34,000  Level FlightAware
08:22AM 57.1120 -5.2420 330° Northwest 452 520 34,000  Level FlightAware
08:23AM 57.2100 -5.3460 330° Northwest 445 512 34,000  Level FlightAware
08:24AM 57.2810 -5.4210 330° Northwest 451 519 34,000  Level FlightAware
08:25AM 57.3630 -5.5100 330° Northwest 450 518 34,000  Level FlightAware
08:25AM 57.4160 -5.5660 330° Northwest 449 517 34,000  Level FlightAware
08:26AM 57.4880 -5.6460 329° Northwest 449 517 34,000  Level FlightAware
08:26AM 57.5610 -5.7240 330° Northwest 450 518 34,000  Level FlightAware
08:27AM 57.6530 -5.8230 330° Northwest 448 516 34,000  Level FlightAware
08:28AM 57.7290 -5.9080 329° Northwest 446 513 34,000  Level FlightAware
08:29AM 57.7870 -5.9720 330° Northwest 444 511 34,000  Level FlightAware
08:29AM 57.8600 -6.0520 330° Northwest 435 501 34,000  Level FlightAware
08:30AM 57.9130 -6.1130 329° Northwest 435 501 34,000  Level FlightAware
08:31AM 57.9920 -6.2010 329° Northwest 436 502 34,000  Level FlightAware
08:31AM 58.0640 -6.2800 330° Northwest 435 501 34,000  Level FlightAware
08:32AM 58.1350 -6.3620 329° Northwest 435 501 34,000  Level FlightAware
08:33AM 58.2050 -6.4410 329° Northwest 434 499 34,000  Level FlightAware
08:33AM 58.2750 -6.5200 329° Northwest 433 498 34,000  Level FlightAware
08:34AM 58.3370 -6.5920 329° Northwest 432 497 34,000  Level FlightAware
08:34AM 58.4010 -6.6640 329° Northwest 431 496 34,000  Level FlightAware
08:35AM 58.4750 -6.7490 329° Northwest 431 496 34,000  Level FlightAware
08:36AM 58.5710 -6.8620 328° Northwest 432 497 34,000  Level FlightAware
08:37AM 58.6410 -6.9450 328° Northwest 433 498 34,000  Level FlightAware
08:37AM 58.7090 -7.0220 330° Northwest 433 498 34,000  Level FlightAware
08:38AM 58.7800 -7.1060 328° Northwest 438 504 34,000  Level FlightAware
08:39AM 58.8590 -7.1990 329° Northwest 436 502 34,000  Level FlightAware
08:40AM 58.9190 -7.2710 328° Northwest 436 502 34,000  Level FlightAware
08:40AM 58.9770 -7.3400 328° Northwest 435 501 34,000  Level FlightAware
08:41AM 59.0470 -7.4270 327° Northwest 434 499 34,000  Level FlightAware
08:41AM 59.1030 -7.4920 329° Northwest 433 498 34,000 60 Level FlightAware
08:42AM 59.1870 -7.5920 329° Northwest 431 496 34,100  Climbing FlightAware
08:43AM 59.2460 -7.6660 327° Northwest 432 497 34,000 -120 Descending FlightAware
08:43AM 59.3060 -7.7400 328° Northwest 432 497 34,000  Level FlightAware
08:44AM 59.3620 -7.8080 328° Northwest 432 497 34,000  Level FlightAware
08:45AM 59.4290 -7.8910 328° Northwest 430 495 34,000  Level FlightAware
08:45AM 59.4860 -7.9630 327° Northwest 431 496 34,000  Level FlightAware
08:46AM 59.5690 -8.0650 328° Northwest 430 495 34,000  Level FlightAware
08:47AM 59.6380 -8.1510 328° Northwest 430 495 34,000  Level FlightAware
08:47AM 59.6890 -8.2160 327° Northwest 430 495 34,000  Level FlightAware
08:48AM 59.7570 -8.3010 328° Northwest 430 495 34,000  Level FlightAware
08:49AM 59.8190 -8.3790 328° Northwest 430 495 34,000  Level FlightAware
08:49AM 59.9050 -8.4900 327° Northwest 431 496 34,000  Level FlightAware
08:50AM 59.9690 -8.5720 327° Northwest 431 496 34,000  Level FlightAware
08:51AM 60.0860 -8.7230 327° Northwest 431 496 34,000  Level FlightAware
08:52AM 60.1590 -8.8160 328° Northwest 430 495 34,000  Level FlightAware
08:52AM 60.2230 -8.9020 326° Northwest 429 494 34,000  Level FlightAware
08:53AM 60.2900 -8.9890 327° Northwest 429 494 34,000  Level FlightAware
08:54AM 60.3490 -9.0670 327° Northwest 429 494 34,000  Level FlightAware
08:54AM 60.4290 -9.1730 327° Northwest 428 493 34,000  Level FlightAware
08:55AM 60.4850 -9.2480 327° Northwest 429 494 34,000  Level FlightAware
08:56AM 60.5530 -9.3390 327° Northwest 430 495 34,000  Level FlightAware
08:56AM 60.6150 -9.4210 327° Northwest 430 495 34,000  Level FlightAware
08:57AM 60.6920 -9.5360 324° Northwest 429 494 34,000  Level FlightAware
08:59AM 60.8100 -9.7160 323° Northwest 430 495 34,000  Level FlightAware
08:59AM 60.8750 -9.8170 323° Northwest 430 495 34,000  Level FlightAware
09:00AM 60.9240 -9.8920 323° Northwest 430 495 34,000  Level FlightAware
09:01AM 60.9900 -9.9950 323° Northwest 430 495 34,000  Level FlightAware
09:01AM 61.0380 -10.0700 323° Northwest 430 495 34,000  Level FlightAware
09:02AM 61.0870 -10.1460 323° Northwest 430 495 34,000  Level FlightAware
09:03AM 61.1350 -10.2220 323° Northwest 430 495 34,000  Level FlightAware
09:03AM 61.1840 -10.2980 323° Northwest 430 495 34,000  Level FlightAware
09:04AM 61.2490 -10.3990 323° Northwest 430 495 34,000  Level FlightAware
09:05AM 61.2970 -10.4750 323° Northwest 430 495 34,000  Level FlightAware
09:05AM 61.3580 -10.5710 323° Northwest 430 495 34,000  Level FlightAware
09:06AM 61.4230 -10.6730 323° Northwest 430 495 34,000  Level FlightAware
09:07AM 61.5500 -11.1340 300° West 428 493 34,000  Level FlightAware
09:07AM 61.6090 -11.2580 315° West 429 494 34,000  Level FlightAware
09:08AM 61.6620 -11.3700 315° West 431 496 34,000  Level FlightAware
09:09AM 61.7260 -11.5080 314° West 432 497 34,000  Level FlightAware
09:09AM 61.7660 -11.5950 314° West 433 498 34,000  Level FlightAware
09:10AM 61.8250 -11.7200 315° West 435 501 34,000  Level FlightAware
09:11AM 61.8820 -11.8450 314° West 435 501 34,000  Level FlightAware
09:11AM 61.9410 -11.9740 314° West 437 503 34,000  Level FlightAware
09:12AM 62.0000 -12.1070 313° West 438 504 34,000  Level FlightAware
09:13AM 62.0600 -12.2380 314° West 439 505 34,000  Level FlightAware
09:14AM 62.1160 -12.3630 314° West 442 509 34,000  Level FlightAware
09:14AM 62.1730 -12.4900 314° West 444 511 34,000  Level FlightAware
09:15AM 62.2390 -12.6400 313° West 445 512 34,000  Level FlightAware
09:16AM 62.2960 -12.7690 314° West 447 514 34,000  Level FlightAware
09:16AM 62.3420 -12.8750 313° West 447 514 34,000  Level FlightAware
09:17AM 62.3990 -13.0050 313° West 449 517 34,000  Level FlightAware
09:18AM 62.4550 -13.1360 313° West 448 516 34,000  Level FlightAware
09:18AM 62.5120 -13.2670 313° West 449 517 34,000  Level FlightAware
09:19AM 62.5690 -13.4030 312° West 451 519 34,000  Level FlightAware
09:20AM 62.6260 -13.5360 313° West 452 520 34,000  Level FlightAware
09:20AM 62.6800 -13.6630 313° West 455 524 34,000  Level FlightAware
09:21AM 62.7430 -13.8130 313° West 458 527 34,000  Level FlightAware
09:22AM 62.7990 -13.9460 313° West 460 529 34,000  Level FlightAware
09:22AM 62.8570 -14.0880 312° West 463 533 34,000  Level FlightAware
09:23AM 62.9190 -14.2380 312° West 465 535 34,000  Level FlightAware
09:24AM 62.9790 -14.3860 312° West 468 539 34,000  Level FlightAware
09:24AM 63.0240 -14.4960 312° West 470 541 34,000  Level FlightAware
09:25AM 63.0880 -14.6540 312° West 472 543 34,000  Level FlightAware
09:26AM 63.1450 -14.7980 311° West 474 545 34,000  Level FlightAware
09:26AM 63.2030 -14.9430 312° West 475 547 34,000  Level FlightAware
09:27AM 63.2710 -15.1120 312° West 476 548 34,000  Level FlightAware
09:28AM 63.3280 -15.2590 311° West 477 549 34,000  Level FlightAware
09:28AM 63.3890 -15.4150 311° West 477 549 34,000  Level FlightAware
09:29AM 63.4470 -15.5640 311° West 477 549 34,000  Level FlightAware
09:30AM 63.4930 -15.6840 311° West 478 550 34,000  Level FlightAware
09:30AM 63.5480 -15.8300 310° West 480 552 34,000  Level FlightAware
09:31AM 63.6080 -15.9860 311° West 480 552 34,000  Level FlightAware
09:31AM 63.6510 -16.1000 310° West 481 554 34,000  Level FlightAware
09:32AM 63.6960 -16.2180 311° West 481 554 34,000  Level FlightAware
09:33AM 63.7580 -16.3830 310° West 481 554 34,000  Level FlightAware
09:33AM 63.8030 -16.5050 310° West 481 554 34,000  Level FlightAware
09:34AM 63.8630 -16.6680 310° West 482 555 34,000  Level FlightAware
09:35AM 63.9250 -16.8390 310° West 482 555 34,000  Level FlightAware
09:35AM 63.9770 -16.9790 310° West 482 555 34,000  Level FlightAware
09:36AM 64.0410 -17.1590 309° West 481 554 34,000  Level FlightAware
09:37AM 64.1010 -17.3240 310° West 481 554 34,000  Level FlightAware
09:37AM 64.1570 -17.4810 309° West 482 555 34,000  Level FlightAware
09:38AM 64.2020 -17.6080 309° West 482 555 34,000  Level FlightAware
09:39AM 64.2570 -17.7680 308° West 483 556 34,000  Level FlightAware
09:39AM 64.3150 -17.9320 309° West 486 559 34,000  Level FlightAware
09:40AM 64.3760 -18.1070 309° West 488 562 34,000  Level FlightAware
09:41AM 64.4370 -18.2870 308° West 489 563 34,000  Level FlightAware
09:41AM 64.4890 -18.4390 309° West 490 564 34,000  Level FlightAware
09:42AM 64.5360 -18.5790 308° West 491 565 34,000  Level FlightAware
09:42AM 64.5820 -18.7130 309° West 493 567 34,000  Level FlightAware
09:43AM 64.6370 -18.8800 308° West 494 568 34,000  Level FlightAware
09:44AM 64.6970 -19.0610 308° West 494 568 34,000  Level FlightAware
09:44AM 64.7360 -19.1800 308° West 496 571 34,000  Level FlightAware
09:45AM 64.7970 -19.3680 307° West 497 572 34,000  Level FlightAware
09:46AM 64.8560 -19.5480 308° West 498 573 34,000  Level FlightAware
09:46AM 64.9090 -19.7120 307° West 499 574 34,000  Level FlightAware
09:47AM 64.9740 -19.9160 307° West 500 575 34,000  Level FlightAware
09:48AM 65.0250 -20.0970 304° West 499 574 34,000  Level FlightAware
09:48AM 65.0750 -20.2950 301° West 501 577 34,000  Level FlightAware
09:49AM 65.1230 -20.4940 300° West 500 575 34,000  Level FlightAware
09:50AM 65.1690 -20.6790 301° West 500 575 34,000  Level FlightAware
09:51AM 65.2200 -20.8930 300° West 498 573 34,000  Level FlightAware
09:51AM 65.2560 -21.0410 300° West 498 573 34,000  Level FlightAware
09:52AM 65.2910 -21.1890 300° West 498 573 34,000  Level FlightAware
09:52AM 65.3360 -21.3790 300° West 496 571 34,000  Level FlightAware
09:53AM 65.3810 -21.5750 299° West 494 568 34,000  Level FlightAware
09:54AM 65.4330 -21.7900 300° West 494 568 34,000  Level FlightAware
09:55AM 65.4900 -22.0450 298° West 496 571 34,000  Level FlightAware
09:55AM 65.5350 -22.2390 299° West 496 571 34,000  Level FlightAware
09:56AM 65.5780 -22.4280 299° West 498 573 34,000  Level FlightAware
09:57AM 65.6260 -22.6490 298° West 499 574 34,000  Level FlightAware
09:57AM 65.6720 -22.8560 298° West 500 575 34,000  Level FlightAware
09:58AM 65.7250 -23.0930 299° West 501 577 34,000  Level FlightAware
09:59AM 65.7680 -23.3020 297° West 501 577 34,000  Level FlightAware
10:00AM 65.8110 -23.5080 297° West 501 577 34,000  Level FlightAware
10:01AM 65.8540 -23.7140 297° West 501 577 34,000  Level FlightAware
10:01AM 65.8950 -23.9110 297° West 501 577 34,000  Level FlightAware
10:02AM 65.9300 -24.0790 297° West 501 577 34,000  Level FlightAware
10:03AM 65.9920 -24.3760 297° West 501 577 34,000  Level FlightAware
10:04AM 66.0270 -24.5450 297° West 501 577 34,000  Level FlightAware
10:04AM 66.0570 -24.6920 297° West 501 577 34,000  Level FlightAware
10:05AM 66.0910 -24.8560 297° West 501 577 34,000  Level FlightAware
10:06AM 66.1340 -25.0650 297° West 501 577 34,000  Level FlightAware
10:06AM 66.1640 -25.2120 297° West 501 577 34,000  Level FlightAware
10:07AM 66.1980 -25.3770 297° West 501 577 34,000  Level FlightAware
10:08AM 66.2430 -25.5950 297° West 501 577 34,000 -60 Level FlightAware
10:10AM 66.3065 -26.1008 288° West  Level Estimated
10:11AM 66.3434 -26.4025 287° West  Level Estimated
10:12AM 66.3798 -26.7051 287° West  Level Estimated
10:13AM 66.4156 -27.0086 287° West  Level Estimated
10:14AM 66.4508 -27.3129 286° West  Level Estimated
10:15AM 66.4853 -27.6181 286° West  Level Estimated
10:16AM 66.5193 -27.9241 286° West  Level Estimated
10:17AM 66.5527 -28.2309 285° West  Level Estimated
10:18AM 66.5855 -28.5386 285° West  Level Estimated
10:19AM 66.6177 -28.8470 285° West  Level Estimated
10:20AM 66.6493 -29.1563 285° West  Level Estimated
10:21AM 66.6802 -29.4663 284° West  Level Estimated
10:22AM 66.7106 -29.7771 284° West  Level Estimated
10:23AM 66.7403 -30.0887 284° West  Level Estimated
10:24AM 66.7695 -30.4010 283° West  Level Estimated
10:25AM 66.7980 -30.7141 283° West  Level Estimated
10:26AM 66.8259 -31.0279 283° West  Level Estimated
10:27AM 66.8531 -31.3423 283° West  Level Estimated
10:28AM 66.8798 -31.6575 282° West  Level Estimated
10:29AM 66.9058 -31.9734 282° West  Level Estimated
10:30AM 66.9312 -32.2899 282° West  Level Estimated
10:31AM 66.9559 -32.6070 281° West  Level Estimated
10:32AM 66.9800 -32.9248 281° West  Level Estimated
10:33AM 67.0035 -33.2433 281° West  Level Estimated
10:34AM 67.0263 -33.5623 281° West  Level Estimated
10:35AM 67.0485 -33.8819 280° West  Level Estimated
10:36AM 67.0701 -34.2021 280° West  Level Estimated
10:37AM 67.0910 -34.5229 280° West  Level Estimated
10:38AM 67.1113 -34.8442 279° West  Level Estimated
10:39AM 67.1309 -35.1660 279° West  Level Estimated
10:40AM 67.1499 -35.4884 279° West  Level Estimated
10:41AM 67.1682 -35.8112 278° West  Level Estimated
10:42AM 67.1859 -36.1345 278° West  Level Estimated
10:43AM 67.2029 -36.4583 278° West  Level Estimated
10:44AM 67.2193 -36.7826 278° West  Level Estimated
10:45AM 67.2350 -37.1073 277° West  Level Estimated
10:46AM 67.2501 -37.4324 277° West  Level Estimated
10:47AM 67.2645 -37.7579 277° West  Level Estimated
10:48AM 67.2782 -38.0837 276° West  Level Estimated
10:49AM 67.2913 -38.4100 276° West  Level Estimated
10:50AM 67.3037 -38.7366 276° West  Level Estimated
10:51AM 67.3155 -39.0635 275° West  Level Estimated
10:52AM 67.3265 -39.3907 275° West  Level Estimated
10:53AM 67.3370 -39.7182 275° West  Level Estimated
10:54AM 67.3467 -40.0460 275° West  Level Estimated
10:55AM 67.3558 -40.3741 274° West  Level Estimated
10:56AM 67.3642 -40.7024 274° West  Level Estimated
10:57AM 67.3720 -41.0309 274° West  Level Estimated
10:58AM 67.3791 -41.3596 273° West  Level Estimated
10:59AM 67.3855 -41.6885 273° West  Level Estimated
11:00AM 67.3912 -42.0176 273° West  Level Estimated
11:01AM 67.3963 -42.3469 272° West  Level Estimated
11:01AM 68.0760 -44.7690 272° West 511 588 33,000  Level FlightAware
11:02AM 67.4007 -42.6762 272° West  Level Estimated
11:02AM 68.0760 -44.9590 270° West 511 588 33,000  Level FlightAware
11:02AM 68.0760 -45.2120 270° West 511 588 33,000  Level FlightAware
11:03AM 68.0750 -45.5240 270° West 511 588 33,000  Level FlightAware
11:04AM 68.0740 -45.8150 270° West 511 588 33,000  Level FlightAware
11:04AM 68.0730 -46.0230 269° West 511 588 33,000  Level FlightAware
11:05AM 68.0710 -46.3250 269° West 511 588 33,000  Level FlightAware
11:06AM 68.0690 -46.5520 269° West 512 589 33,000  Level FlightAware
11:06AM 68.0660 -46.8370 269° West 512 589 33,000  Level FlightAware
11:07AM 68.0620 -47.1080 268° West 512 589 33,000  Level FlightAware
11:08AM 68.0590 -47.3540 268° West 512 589 33,000  Level FlightAware
11:09AM 68.0550 -47.6510 268° West 513 590 33,000  Level FlightAware
11:09AM 68.0500 -47.9090 267° West 513 590 33,000  Level FlightAware
11:10AM 68.0460 -48.1500 268° West 513 590 33,000  Level FlightAware
11:11AM 68.0410 -48.3830 267° West 512 589 33,000  Level FlightAware
11:11AM 68.0350 -48.6980 267° West 512 589 33,000  Level FlightAware
11:12AM 68.0280 -48.9750 266° West 513 590 33,000  Level FlightAware
11:13AM 68.0220 -49.2400 267° West 512 589 33,000  Level FlightAware
11:13AM 68.0150 -49.4920 266° West 513 590 33,000  Level FlightAware
11:14AM 68.0070 -49.7560 265° West 513 590 33,000  Level FlightAware
11:15AM 67.9980 -50.0130 265° West 512 589 33,000  Level FlightAware
11:16AM 67.9820 -50.2800 261° West 510 587 33,000  Level FlightAware
11:16AM 67.9640 -50.5330 259° West 510 587 33,000  Level FlightAware
11:17AM 67.9450 -50.8090 260° West 508 585 33,000  Level FlightAware
11:18AM 67.9290 -51.0300 259° West 509 586 33,000  Level FlightAware
11:18AM 67.9080 -51.3060 259° West 509 586 33,000  Level FlightAware
11:19AM 67.8890 -51.5620 259° West 509 586 33,000  Level FlightAware
11:20AM 67.8690 -51.8190 258° West 510 587 33,000  Level FlightAware
11:20AM 67.8490 -52.0760 258° West 511 588 33,000  Level FlightAware
11:21AM 67.8270 -52.3510 258° West 512 589 33,000  Level FlightAware
11:22AM 67.8070 -52.5950 258° West 511 588 33,000  Level FlightAware
11:23AM 67.7870 -52.8390 258° West 511 588 33,000  Level FlightAware
11:24AM 67.7540 -53.2140 257° West 508 585 33,000  Level FlightAware
11:24AM 67.7300 -53.4910 257° West 508 585 33,000  Level FlightAware
11:25AM 67.7070 -53.7430 257° West 507 583 33,000  Level FlightAware
11:26AM 67.6770 -54.0650 256° West 506 582 33,000  Level FlightAware
11:27AM 67.6590 -54.2530 256° West 506 582 33,000  Level FlightAware
11:27AM 67.6410 -54.4410 256° West 506 582 33,000  Level FlightAware
11:28AM 67.6240 -54.6180 256° West 506 582 33,000  Level FlightAware
11:29AM 67.6000 -54.8670 256° West 506 582 33,000  Level FlightAware
11:29AM 67.5830 -55.0490 256° West 506 582 33,000  Level FlightAware
11:30AM 67.5600 -55.2920 256° West 506 582 33,000  Level FlightAware
11:31AM 67.4970 -55.8740 254° West 504 580 33,000  Level FlightAware
11:32AM 67.4780 -56.0530 255° West 504 580 33,000  Level FlightAware
11:32AM 67.4580 -56.2320 254° West 504 580 33,000  Level FlightAware
11:33AM 67.4250 -56.5300 254° West 504 580 33,000  Level FlightAware
11:34AM 67.4050 -56.7080 254° West 504 580 33,000  Level FlightAware
11:35AM 67.3720 -57.0100 254° West 504 580 33,000  Level FlightAware
11:36AM 67.3520 -57.1930 254° West 504 580 33,000  Level FlightAware
11:36AM 67.3250 -57.4360 254° West 504 580 33,000  Level FlightAware
11:37AM 67.3060 -57.6090 254° West 504 580 33,000  Level FlightAware
11:37AM 67.2333 -57.7000 257° West 520 598 33,000  Level Edmonton Center
11:38AM 67.2860 -57.7910 254° West 504 580 33,000  Level FlightAware
11:38AM 67.2660 -57.9690 254° West 504 580 33,000  Level FlightAware
11:38AM 67.1833 -58.0667 251° West 520 598 33,000  Level Edmonton Center
11:39AM 67.2400 -58.2050 254° West 504 580 33,000  Level FlightAware
11:39AM 67.1500 -58.4167 256° West 520 598 33,000  Level Edmonton Center
11:40AM 67.2200 -58.3820 254° West 504 580 33,000  Level FlightAware
11:40AM 67.2000 -58.5590 254° West 504 580 33,000  Level FlightAware
11:40AM 67.1000 -58.7667 250° West 520 598 33,000  Level Edmonton Center
11:41AM 67.0500 -59.0833 248° West 520 598 33,000  Level Edmonton Center
11:42AM 67.0000 -59.4667 252° West 520 598 33,000  Level Edmonton Center
11:43AM 67.1255 -59.3570 257° West  Level Estimated
11:43AM 66.9667 -59.7833 255° West 510 587 33,000  Level Edmonton Center
11:44AM 66.9000 -60.1000 242° Southwest 510 587 33,000 60 Level Edmonton Center
11:45AM 66.8333 -60.4167 242° Southwest 520 598 33,200 480 Climbing Edmonton Center
11:46AM 66.7667 -60.7667 244° Southwest 520 598 34,000 360 Climbing Edmonton Center
11:47AM 66.7000 -61.0667 241° Southwest 520 598 34,000  Level Edmonton Center
11:48AM 66.6333 -61.3833 242° Southwest 520 598 34,000  Level Edmonton Center
11:49AM 66.5667 -61.6500 238° Southwest 510 587 34,000  Level Edmonton Center
11:50AM 66.5167 -62.0000 250° West 510 587 34,000  Level Edmonton Center
11:51AM 66.4333 -62.3000 235° Southwest 510 587 34,000  Level Edmonton Center
11:52AM 66.3667 -62.6000 241° Southwest 510 587 34,000  Level Edmonton Center
11:53AM 66.3000 -62.9333 244° Southwest 510 587 34,000  Level Edmonton Center
11:55AM 66.2213 -63.3392 244° Southwest  Level FlightAware Approximate
11:55AM 66.1500 -63.5167 244° Southwest 510 587 34,000  Level Edmonton Center
11:56AM 66.1000 -63.8000 247° West 510 587 34,000  Level Edmonton Center
11:57AM 66.0333 -64.1167 243° Southwest 510 587 34,000  Level Edmonton Center
11:58AM 65.9500 -64.4167 236° Southwest 510 587 34,000  Level Edmonton Center
11:59AM 65.8667 -64.7000 234° Southwest 510 587 34,000  Level Edmonton Center
12:00PM 65.8000 -65.0167 243° Southwest 510 587 34,000  Level Edmonton Center
12:01PM 65.7333 -65.3000 240° Southwest 510 587 34,000  Level Edmonton Center
12:02PM 65.6500 -65.5833 235° Southwest 510 587 34,000  Level Edmonton Center
12:04PM 65.5609 -65.9667 241° Southwest  Level FlightAware Approximate
12:08PM 65.2500 -67.5333 237° Southwest 510 587 34,000  Level Montreal Center
12:09PM 65.1667 -67.8000 233° Southwest 510 587 34,000  Level Montreal Center
12:10PM 65.0333 -67.8833 195° South 510 587 34,000  Level Edmonton Center
12:11PM 65.0647 -67.9855 240° Southwest  Level FlightAware Approximate
12:11PM 64.9500 -68.1500 234° Southwest 510 587 34,000  Level Edmonton Center
12:12PM 64.9916 -68.2677 239° Southwest  Level FlightAware Approximate
12:12PM 64.9000 -68.4333 248° West 510 587 34,000  Level Edmonton Center
12:13PM 64.9180 -68.5484 238° Southwest  Level FlightAware Approximate
12:13PM 64.8333 -68.9167 252° West 510 587 34,000  Level Montreal Center
12:14PM 64.8401 -68.8294 237° Southwest  Level FlightAware Approximate
12:14PM 64.7667 -69.1833 240° Southwest 520 598 34,000  Level Montreal Center
12:15PM 64.6833 -69.4667 236° Southwest 510 587 34,000  Level Montreal Center
12:16PM 64.6000 -69.7167 232° Southwest 510 587 34,000  Level Montreal Center
12:17PM 64.5167 -70.0167 237° Southwest 520 598 34,000 300 Level Montreal Center
12:18PM 64.4333 -70.2667 232° Southwest 520 598 34,600 840 Climbing Montreal Center
12:19PM 64.3000 -70.3333 192° South 510 587 35,600 660 Climbing Edmonton Center
12:20PM 64.2667 -70.8000 261° West 510 587 36,000 180 Climbing Montreal Center
12:21PM 64.1667 -71.0500 228° Southwest 510 587 36,000  Level Montreal Center
12:22PM 64.1000 -71.3333 242° Southwest 510 587 36,000  Level Montreal Center
12:23PM 64.0000 -71.5667 226° Southwest 510 587 36,000  Level Montreal Center
12:24PM 63.9333 -71.8167 239° Southwest 510 587 36,000  Level Montreal Center
12:25PM 63.8333 -72.0833 230° Southwest 510 587 36,000  Level Montreal Center
12:26PM 63.7333 -72.3333 228° Southwest 510 587 36,000  Level Montreal Center
12:27PM 63.6667 -72.5667 237° Southwest 510 587 36,000  Level Montreal Center
12:28PM 63.5667 -72.8333 230° Southwest 510 587 36,000  Level Montreal Center
12:29PM 63.4667 -73.0667 226° Southwest 500 575 36,000  Level Montreal Center
12:30PM 63.3833 -73.3000 232° Southwest 500 575 36,000  Level Montreal Center
12:31PM 63.3167 -73.5333 238° Southwest 490 564 36,000  Level Montreal Center
12:32PM 63.2167 -73.7667 226° Southwest 500 575 36,000  Level Montreal Center
12:33PM 63.1167 -74.0333 230° Southwest 500 575 36,000  Level Montreal Center
12:34PM 63.0333 -74.2167 225° Southwest 480 552 36,000  Level Montreal Center
12:35PM 62.9167 -74.2833 195° South 510 587 36,000  Level Edmonton Center
12:36PM 62.8500 -74.7167 252° West 500 575 36,000  Level Montreal Center
12:37PM 62.7667 -74.9667 234° Southwest 500 575 36,000  Level Montreal Center
12:38PM 62.6833 -75.1833 230° Southwest 500 575 36,000  Level Montreal Center
12:39PM 62.5500 -75.2167 187° South 500 575 36,000  Level Edmonton Center
12:40PM 62.4500 -75.4500 227° Southwest 500 575 36,000  Level Edmonton Center
12:42PM 62.3167 -76.1000 246° West 500 575 36,000  Level Montreal Center
12:43PM 62.1833 -76.0833 177° South 500 575 36,000  Level Edmonton Center
12:44PM 62.1000 -76.3333 235° Southwest 500 575 36,000  Level Edmonton Center
12:45PM 62.0333 -76.7333 251° West 500 575 36,000  Level Montreal Center
12:46PM 61.9333 -76.9500 226° Southwest 490 564 36,000  Level Montreal Center
12:47PM 61.8333 -77.1667 226° Southwest 490 564 36,000  Level Montreal Center
12:48PM 61.7500 -77.3667 229° Southwest 490 564 36,000  Level Montreal Center
12:49PM 61.6500 -77.5833 226° Southwest 490 564 36,000  Level Montreal Center
12:50PM 61.5667 -77.8167 233° Southwest 480 552 36,000  Level Montreal Center
12:51PM 61.4833 -78.0333 231° Southwest 490 564 36,000  Level Montreal Center
12:52PM 61.3667 -78.2333 219° Southwest 490 564 36,000  Level Montreal Center
12:53PM 61.2833 -78.4333 229° Southwest 490 564 36,000  Level Montreal Center
12:54PM 61.1833 -78.6333 224° Southwest 490 564 36,000  Level Montreal Center
12:55PM 61.1000 -78.8333 229° Southwest 490 564 36,000  Level Montreal Center
12:56PM 61.0000 -79.0333 224° Southwest 490 564 36,000  Level Montreal Center
12:57PM 60.9000 -79.2333 224° Southwest 480 552 36,000  Level Montreal Center
12:58PM 60.7667 -79.2500 183° South 490 564 36,000  Level Edmonton Center
12:59PM 60.6833 -79.4333 227° Southwest 490 564 36,000  Level Edmonton Center
01:00PM 60.6000 -79.6500 232° Southwest 490 564 36,000  Level Edmonton Center
01:01PM 60.5000 -79.8500 225° Southwest 480 552 36,000  Level Edmonton Center
01:02PM 60.4167 -80.0667 232° Southwest 480 552 36,000  Level Edmonton Center
01:04PM 60.2500 -80.4667 230° Southwest 480 552 36,000  Level Edmonton Center
01:06PM 60.1530 -80.7433 235° Southwest  Level FlightAware Approximate
01:06PM 60.0833 -80.9333 235° Southwest 480 552 36,000  Level Edmonton Center
01:07PM 60.0500 -81.3000 260° West 480 552 36,000  Level Montreal Center
01:08PM 59.9500 -81.5333 229° Southwest 480 552 36,000  Level Montreal Center
01:09PM 59.8833 -81.7500 239° Southwest 480 552 36,000  Level Montreal Center
01:10PM 59.7833 -81.9333 223° Southwest 490 564 36,000  Level Montreal Center
01:11PM 59.7000 -82.1500 233° Southwest 490 564 36,000  Level Montreal Center
01:12PM 59.6000 -82.2167 199° South 490 564 36,000  Level Edmonton Center
01:13PM 59.5167 -82.4167 231° Southwest 490 564 36,000  Level Edmonton Center
01:14PM 59.4167 -82.6167 226° Southwest 490 564 36,000  Level Edmonton Center
01:15PM 59.3500 -82.8500 241° Southwest 490 564 36,000  Level Edmonton Center
01:17PM 59.2000 -83.4167 243° Southwest 480 552 36,000  Level Montreal Center
01:18PM 59.1167 -83.6333 233° Southwest 480 552 36,000  Level Montreal Center
01:19PM 59.0167 -83.6333 180° South 480 552 36,000  Level Edmonton Center
01:20PM 58.9167 -83.8500 228° Southwest 490 564 36,000  Level Edmonton Center
01:21PM 58.8333 -84.0500 231° Southwest 480 552 36,000  Level Edmonton Center
01:22PM 58.7500 -84.2500 231° Southwest 480 552 36,000  Level Edmonton Center
01:23PM 58.6500 -84.4667 228° Southwest 480 552 36,000  Level Edmonton Center
01:24PM 58.5833 -84.6500 235° Southwest 490 564 36,000  Level Edmonton Center
01:25PM 58.4833 -84.8333 224° Southwest 490 564 36,000  Level Edmonton Center
01:26PM 58.4000 -85.0667 236° Southwest 490 564 36,000  Level Edmonton Center
01:27PM 58.3000 -85.2500 224° Southwest 490 564 36,000  Level Edmonton Center
01:28PM 58.2167 -85.4667 234° Southwest 490 564 36,000  Level Edmonton Center
01:29PM 58.1333 -85.6500 229° Southwest 490 564 36,000  Level Edmonton Center
01:30PM 58.0333 -85.8333 224° Southwest 490 564 36,000  Level Edmonton Center
01:31PM 57.9500 -86.0500 234° Southwest 490 564 36,000  Level Edmonton Center
01:32PM 57.8500 -86.2333 224° Southwest 490 564 36,000  Level Edmonton Center
01:33PM 57.7667 -86.6167 248° West 490 564 36,000  Level Montreal Center
01:34PM 57.6833 -86.6167 180° South 490 564 36,000  Level Edmonton Center
01:35PM 57.5833 -86.8000 225° Southwest 490 564 36,000  Level Edmonton Center
01:36PM 57.4833 -86.9833 225° Southwest 480 552 36,000  Level Edmonton Center
01:37PM 57.4000 -87.2000 235° Southwest 490 564 36,000  Level Edmonton Center
01:38PM 57.3000 -87.3667 222° Southwest 480 552 36,000  Level Edmonton Center
01:39PM 57.2167 -87.5833 235° Southwest 470 541 36,000  Level Edmonton Center
01:40PM 57.1333 -87.7500 227° Southwest 480 552 36,000  Level Edmonton Center
01:41PM 57.0167 -87.9500 223° Southwest 480 552 36,000  Level Edmonton Center
01:42PM 56.9333 -88.1000 225° Southwest 480 552 36,000  Level Edmonton Center
01:44PM 56.7667 -88.5167 234° Southwest 480 552 36,000  Level Winnipeg Center
01:45PM 56.6500 -88.6667 215° Southwest 480 552 36,000  Level Edmonton Center
01:46PM 56.5833 -88.8667 239° Southwest 490 564 36,000  Level Winnipeg Center
01:47PM 56.4667 -89.0000 212° Southwest 470 541 36,000  Level Edmonton Center
01:48PM 56.3667 -89.2000 228° Southwest 490 564 36,000  Level Edmonton Center
01:49PM 56.3000 -89.4167 241° Southwest 490 564 36,000  Level Winnipeg Center
01:50PM 56.2000 -89.5833 223° Southwest 490 564 36,000  Level Winnipeg Center
01:51PM 56.1000 -89.7167 217° Southwest 480 552 36,000  Level Edmonton Center
01:52PM 56.0000 -89.8833 223° Southwest 480 552 36,000 240 Level Edmonton Center
01:53PM 55.9167 -90.0500 228° Southwest 470 541 36,500 900 Climbing Edmonton Center
01:54PM 55.8167 -90.2333 226° Southwest 480 552 37,800 720 Climbing Edmonton Center
01:55PM 55.7333 -90.4167 231° Southwest 480 552 38,000 60 Climbing Edmonton Center
01:56PM 55.7031 -90.4809 231° Southwest  Level FlightAware Approximate
01:57PM 55.5500 -90.7667 227° Southwest 470 541 38,000  Level Edmonton Center
01:58PM 55.4667 -90.9500 231° Southwest 470 541 38,000  Level Edmonton Center
01:59PM 55.3667 -91.1167 223° Southwest 480 552 38,000  Level Edmonton Center
02:01PM 55.1833 -91.4833 229° Southwest 480 552 38,000  Level Edmonton Center
02:02PM 55.1000 -91.6333 226° Southwest 470 541 38,000  Level Edmonton Center
02:03PM 55.0167 -91.8000 229° Southwest 490 564 38,000  Level Edmonton Center
02:04PM 54.9167 -91.9833 227° Southwest 470 541 38,000  Level Edmonton Center
02:05PM 54.8333 -92.1333 226° Southwest 470 541 38,000  Level Edmonton Center
02:06PM 54.7500 -92.3167 232° Southwest 460 529 38,000  Level Edmonton Center
02:07PM 54.6667 -92.4667 226° Southwest 460 529 38,000  Level Edmonton Center
02:08PM 54.5667 -92.6500 227° Southwest 460 529 38,000  Level Edmonton Center
02:09PM 54.4667 -92.7833 218° Southwest 460 529 38,000  Level Edmonton Center
02:10PM 54.3833 -92.9667 232° Southwest 460 529 38,000  Level Edmonton Center
02:11PM 54.3000 -93.1000 223° Southwest 460 529 38,000  Level Edmonton Center
02:12PM 54.2167 -93.2833 232° Southwest 460 529 38,000  Level Edmonton Center
02:13PM 54.1333 -93.4167 223° Southwest 460 529 38,000  Level Edmonton Center
02:14PM 54.0333 -93.6000 227° Southwest 470 541 38,000  Level Edmonton Center
02:15PM 53.9500 -93.7333 223° Southwest 460 529 38,000  Level Edmonton Center
02:16PM 53.8500 -93.9167 227° Southwest 460 529 38,000  Level Edmonton Center
02:17PM 53.7667 -94.0500 223° Southwest 460 529 38,000  Level Edmonton Center
02:18PM 53.7000 -94.2167 236° Southwest 460 529 38,000  Level Winnipeg Center
02:19PM 53.6000 -94.4000 227° Southwest 460 529 38,000  Level Winnipeg Center
02:20PM 53.5000 -94.5500 222° Southwest 460 529 38,000  Level Winnipeg Center
02:21PM 53.4167 -94.6833 224° Southwest 440 506 38,000  Level Winnipeg Center
02:22PM 53.3167 -94.8000 215° Southwest 450 518 38,000  Level Edmonton Center
02:23PM 53.2333 -94.9667 230° Southwest 450 518 38,000  Level Edmonton Center
02:24PM 53.1167 -95.1000 214° Southwest 460 529 38,000  Level Edmonton Center
02:25PM 53.0500 -95.2667 236° Southwest 450 518 38,000  Level Edmonton Center
02:26PM 52.9500 -95.4000 219° Southwest 450 518 38,000  Level Edmonton Center
02:27PM 52.8667 -95.5667 230° Southwest 460 529 38,000  Level Edmonton Center
02:28PM 52.7667 -95.7000 219° Southwest 460 529 38,000  Level Edmonton Center
02:29PM 52.6833 -95.8833 233° Southwest 460 529 38,000  Level Winnipeg Center
02:30PM 52.5833 -95.9833 211° Southwest 460 529 38,000  Level Edmonton Center
02:38PM 51.8980 -97.1330 211° Southwest 464 534 38,000  Level FlightAware
02:38PM 51.8350 -97.2270 223° Southwest 463 533 38,000  Level FlightAware
02:39PM 51.7840 -97.3020 222° Southwest 464 534 38,000  Level FlightAware
02:40PM 51.7050 -97.4220 223° Southwest 463 533 38,000  Level FlightAware
02:40PM 51.6490 -97.5060 223° Southwest 464 534 38,000  Level FlightAware
02:41PM 51.5830 -97.6020 222° Southwest 464 534 38,000  Level FlightAware
02:42PM 51.5220 -97.6920 223° Southwest 464 534 38,000  Level FlightAware
02:42PM 51.4590 -97.7850 223° Southwest 464 534 38,000  Level FlightAware
02:44PM 51.3410 -97.9560 222° Southwest 465 535 38,000  Level FlightAware
02:44PM 51.2720 -98.0550 222° Southwest 465 535 38,000  Level FlightAware
02:45PM 51.2100 -98.1450 222° Southwest 465 535 38,000  Level FlightAware
02:46PM 51.1600 -98.2160 222° Southwest 465 535 38,000  Level FlightAware
02:46PM 51.0830 -98.3280 222° Southwest 465 535 38,000  Level FlightAware
02:47PM 51.0120 -98.4290 222° Southwest 465 535 38,000  Level FlightAware
02:48PM 50.9530 -98.5130 222° Southwest 465 535 38,000  Level FlightAware
02:48PM 50.8940 -98.5940 221° Southwest 466 536 38,000  Level FlightAware
02:49PM 50.8200 -98.6980 222° Southwest 465 535 38,000  Level FlightAware
02:50PM 50.7550 -98.7910 222° Southwest 465 535 38,000  Level FlightAware
02:50PM 50.6840 -98.8900 221° Southwest 465 535 38,000  Level FlightAware
02:51PM 50.6200 -98.9800 222° Southwest 465 535 38,000  Level FlightAware
02:52PM 50.5540 -99.0710 221° Southwest 466 536 38,000  Level FlightAware
02:53PM 50.4840 -99.1680 221° Southwest 467 537 38,000  Level FlightAware
02:53PM 50.4190 -99.2570 221° Southwest 467 537 38,000  Level FlightAware
02:54PM 50.3460 -99.3570 221° Southwest 468 539 38,000  Level FlightAware
02:55PM 50.2750 -99.4530 221° Southwest 469 540 38,000  Level FlightAware
02:55PM 50.2120 -99.5380 221° Southwest 470 541 38,000  Level FlightAware
02:56PM 50.1390 -99.6380 221° Southwest 472 543 38,000  Level FlightAware
02:57PM 50.0710 -99.7290 221° Southwest 472 543 38,000  Level FlightAware
02:57PM 50.0000 -99.8250 221° Southwest 473 544 38,000  Level FlightAware
02:58PM 49.9300 -99.9170 220° Southwest 475 547 38,000  Level FlightAware
02:59PM 49.8550 -99.9970 215° Southwest 477 549 38,000  Level FlightAware
02:59PM 49.7890 -100.0650 214° Southwest 479 551 38,000  Level FlightAware
03:00PM 49.7090 -100.1450 213° Southwest 480 552 38,000  Level FlightAware
03:01PM 49.6340 -100.2190 213° Southwest 481 554 38,000  Level FlightAware
03:01PM 49.5670 -100.2850 213° Southwest 483 556 38,000  Level FlightAware
03:02PM 49.4850 -100.3640 212° Southwest 484 557 38,000  Level FlightAware
03:03PM 49.4100 -100.4380 213° Southwest 487 560 38,000  Level FlightAware
03:03PM 49.3360 -100.5080 212° Southwest 488 562 38,000  Level FlightAware
03:04PM 49.2540 -100.5870 212° Southwest 489 563 38,000  Level FlightAware
03:05PM 49.1490 -100.6890 212° Southwest 490 564 38,000  Level FlightAware
03:06PM 49.0310 -100.8030 212° Southwest 492 566 38,000  Level FlightAware
03:07PM 48.9500 -100.8780 211° Southwest 494 568 38,000  Level FlightAware
03:07PM 48.8840 -100.9430 213° Southwest 495 570 38,000  Level FlightAware
03:08PM 48.8000 -101.0190 211° Southwest 495 570 38,000  Level FlightAware
03:09PM 48.7400 -101.0740 211° Southwest 495 570 38,000  Level FlightAware
03:10PM 48.6580 -101.1480 211° Southwest 495 570 38,000  Level FlightAware
03:10PM 48.6020 -101.2000 212° Southwest 495 570 38,000  Level FlightAware
03:11PM 48.5400 -101.2560 211° Southwest 495 570 38,000  Level FlightAware
03:11PM 48.4830 -101.3070 211° Southwest 495 570 38,000  Level FlightAware
03:12PM 48.3800 -101.4010 211° Southwest 495 570 38,000  Level FlightAware
03:13PM 48.3160 -101.4580 211° Southwest 495 570 38,000  Level FlightAware
03:14PM 48.2560 -101.5130 211° Southwest 495 570 38,000  Level FlightAware
03:14PM 48.1940 -101.5680 211° Southwest 495 570 38,000  Level FlightAware
03:15PM 48.1130 -101.6420 211° Southwest 495 570 38,000  Level FlightAware
03:16PM 48.0530 -101.6960 211° Southwest 495 570 38,000  Level FlightAware
03:16PM 47.9920 -101.7500 211° Southwest 495 570 38,000  Level FlightAware
03:17PM 47.9160 -101.8190 211° Southwest 495 570 38,000  Level FlightAware
03:18PM 47.6031 -102.1222 211° Southwest 516 594 38,000  Level Salt Lake Center
03:19PM 47.4808 -102.2314 211° Southwest 515 593 38,000  Level Salt Lake Center
03:20PM 47.3564 -102.3408 211° Southwest 516 594 38,000  Level Salt Lake Center
03:21PM 47.2314 -102.4494 211° Southwest 518 596 38,000  Level Salt Lake Center
03:22PM 47.0839 -102.5781 211° Southwest 517 595 38,000  Level Salt Lake Center
03:23PM 46.9589 -102.6861 211° Southwest 518 596 38,000  Level Salt Lake Center
03:24PM 46.8339 -102.7956 211° Southwest 519 597 38,000  Level Salt Lake Center
03:25PM 46.7136 -102.9125 214° Southwest 519 597 38,000  Level Salt Lake Center
03:26PM 46.5878 -103.0197 210° Southwest 522 601 38,000  Level Salt Lake Center
03:27PM 46.4642 -103.1322 212° Southwest 522 601 38,000  Level Salt Lake Center
03:28PM 46.3417 -103.2419 212° Southwest 521 600 38,000  Level Salt Lake Center
03:29PM 46.1922 -103.3794 213° Southwest 524 603 38,000  Level Salt Lake Center
03:31PM 46.0667 -103.4944 212° Southwest 528 608 38,000  Level Salt Lake Center
03:32PM 45.9406 -103.6056 212° Southwest 531 611 38,000  Level Salt Lake Center
03:33PM 45.8150 -103.7125 211° Southwest 530 610 38,000  Level Salt Lake Center
03:34PM 45.6892 -103.8231 212° Southwest 530 610 38,000  Level Salt Lake Center
03:35PM 45.5631 -103.9364 212° Southwest 534 615 38,000  Level Salt Lake Center
03:36PM 45.4150 -104.0767 214° Southwest 533 613 38,000  Level Salt Lake Center
03:37PM 45.2286 -104.2625 215° Southwest 528 608 38,000  Level Denver Center
03:38PM 45.1136 -104.3833 217° Southwest 533 613 38,000  Level Salt Lake Center
03:39PM 44.9978 -104.5003 216° Southwest 534 615 38,000  Level Salt Lake Center
03:40PM 44.8639 -104.6281 214° Southwest 527 606 38,000  Level Salt Lake Center
03:41PM 44.7469 -104.7397 214° Southwest 526 605 38,000  Level Salt Lake Center
03:42PM 44.6325 -104.8533 215° Southwest 526 605 38,000  Level Salt Lake Center
03:43PM 44.4969 -104.9831 214° Southwest 528 608 38,000  Level Salt Lake Center
03:44PM 44.3819 -105.0919 214° Southwest 526 605 38,000  Level Salt Lake Center
03:45PM 44.2458 -105.2200 214° Southwest 526 605 38,000  Level Salt Lake Center
03:46PM 44.1300 -105.3292 214° Southwest 527 606 38,000  Level Salt Lake Center
03:47PM 43.9947 -105.4564 214° Southwest 527 606 38,000  Level Salt Lake Center
03:49PM 43.8594 -105.5769 213° Southwest 528 608 38,000  Level Denver Center
03:50PM 43.7419 -105.6856 214° Southwest 529 609 38,000  Level Denver Center
03:51PM 43.6058 -105.8106 214° Southwest 529 609 38,000  Level Denver Center
03:52PM 43.4900 -105.9172 214° Southwest 527 606 38,000  Level Denver Center
03:53PM 43.3531 -106.0411 213° Southwest 528 608 38,000  Level Denver Center
03:54PM 43.2372 -106.1469 214° Southwest 525 604 38,000  Level Denver Center
03:55PM 43.1014 -106.2692 213° Southwest 525 604 38,000  Level Denver Center
03:56PM 42.9886 -106.3781 215° Southwest 523 602 38,000  Level Denver Center
03:57PM 42.8603 -106.5122 217° Southwest 521 600 38,000  Level Denver Center
03:58PM 42.7494 -106.6214 216° Southwest 517 595 38,000  Level Denver Center
03:59PM 42.6183 -106.7478 215° Southwest 519 597 38,000  Level Denver Center
04:00PM 42.5078 -106.8556 216° Southwest 513 590 38,000  Level Denver Center
04:01PM 42.3856 -106.9753 216° Southwest 508 585 38,000  Level Denver Center
04:02PM 42.2769 -107.0814 216° Southwest 504 580 38,000  Level Denver Center
04:03PM 42.1486 -107.2053 216° Southwest 504 580 38,000  Level Denver Center
04:04PM 42.0383 -107.3111 215° Southwest 506 582 38,000  Level Denver Center
04:05PM 41.9089 -107.4339 215° Southwest 509 586 38,000  Level Denver Center
04:06PM 41.8006 -107.5403 216° Southwest 508 585 38,000  Level Salt Lake Center
04:07PM 41.7028 -107.6625 223° Southwest 501 577 38,000  Level Salt Lake Center
04:08PM 41.5953 -107.8117 226° Southwest 501 577 38,000  Level Denver Center
04:09PM 41.5031 -107.9386 226° Southwest 498 573 38,000  Level Denver Center
04:10PM 41.3975 -108.0894 227° Southwest 497 572 38,000  Level Denver Center
04:16PM 40.8570 -108.8450 227° Southwest 490 564 38,000  Level FlightAware
04:17PM 40.8020 -108.9200 226° Southwest 491 565 38,000  Level FlightAware
04:17PM 40.7190 -109.0320 226° Southwest 491 565 38,000  Level FlightAware
04:18PM 40.6660 -109.1050 226° Southwest 490 564 38,000  Level FlightAware
04:19PM 40.6100 -109.1830 227° Southwest 489 563 38,000  Level FlightAware
04:19PM 40.5370 -109.2810 226° Southwest 490 564 38,000  Level FlightAware
04:20PM 40.4740 -109.3660 226° Southwest 490 564 38,000  Level FlightAware
04:21PM 40.4170 -109.4430 226° Southwest 489 563 38,000  Level FlightAware
04:21PM 40.3480 -109.5370 226° Southwest 490 564 38,000  Level FlightAware
04:22PM 40.2820 -109.6240 225° Southwest 487 560 38,000  Level FlightAware
04:23PM 40.2320 -109.6910 226° Southwest 485 558 38,000  Level FlightAware
04:23PM 40.1830 -109.7560 225° Southwest 486 559 38,000  Level FlightAware
04:24PM 40.1170 -109.8440 226° Southwest 485 558 38,000  Level FlightAware
04:24PM 40.0510 -109.9320 226° Southwest 484 557 38,000  Level FlightAware
04:25PM 39.9850 -110.0140 224° Southwest 484 557 38,000  Level FlightAware
04:26PM 39.9480 -110.0540 220° Southwest 484 557 38,000  Level FlightAware
04:26PM 39.8630 -110.1430 219° Southwest 484 557 38,000  Level FlightAware
04:27PM 39.7850 -110.2220 218° Southwest 482 555 38,000  Level FlightAware
04:28PM 39.7330 -110.2760 219° Southwest 481 554 38,000  Level FlightAware
04:28PM 39.6550 -110.3570 219° Southwest 480 552 38,000  Level FlightAware
04:29PM 39.5760 -110.4370 218° Southwest 479 551 38,000  Level FlightAware
04:30PM 39.5180 -110.4960 218° Southwest 479 551 38,000  Level FlightAware
04:30PM 39.4560 -110.5600 219° Southwest 479 551 38,000  Level FlightAware
04:31PM 39.3700 -110.6470 218° Southwest 478 550 38,000  Level FlightAware
04:32PM 39.2720 -110.7470 218° Southwest 476 548 38,000  Level FlightAware
04:33PM 39.1960 -110.8240 218° Southwest 475 547 38,000  Level FlightAware
04:34PM 39.1980 -110.8220 38° Northeast 475 547 38,000  Level FlightAware
04:34PM 39.0128 -111.0070 218° Southwest 474 545 38,000  Level FlightAware ADS-B
04:35PM 38.9591 -111.0610 218° Southwest 474 545 38,000  Level FlightAware ADS-B
04:36PM 38.8900 -111.1300 218° Southwest 473 544 38,000  Level FlightAware
04:36PM 38.8327 -111.1870 218° Southwest 474 545 38,000  Level FlightAware ADS-B
04:37PM 38.7410 -111.2670 214° Southwest 474 545 38,000  Level FlightAware
04:38PM 38.6790 -111.3050 206° Southwest 474 545 38,000  Level FlightAware ADS-B
04:39PM 38.5615 -111.3830 207° Southwest 476 548 38,000  Level FlightAware ADS-B
04:39PM 38.5050 -111.4200 207° Southwest 475 547 38,000  Level FlightAware
04:39PM 38.4789 -111.4370 207° Southwest 476 548 38,000  Level FlightAware ADS-B
04:40PM 38.4112 -111.4820 208° Southwest 476 548 38,000  Level FlightAware ADS-B
04:40PM 38.3636 -111.5183 208° Southwest 475 547 38,000  Level Los Angeles Center
04:41PM 38.2681 -111.5803 207° Southwest 475 547 38,000  Level Salt Lake Center
04:42PM 38.1519 -111.6583 208° Southwest 472 543 38,000  Level Salt Lake Center
04:43PM 38.0353 -111.7361 208° Southwest 472 543 38,000  Level Salt Lake Center
04:44PM 37.9183 -111.8125 207° Southwest 472 543 38,000  Level Salt Lake Center
04:50PM 37.3000 -112.4000 207° Southwest 468 539 38,000  Level FlightAware
04:51PM 37.2500 -112.4990 238° Southwest 468 539 38,000  Level FlightAware
04:52PM 37.2010 -112.5950 237° Southwest 470 541 38,000  Level FlightAware
04:52PM 37.1560 -112.6820 237° Southwest 471 542 38,000  Level FlightAware
04:53PM 37.1030 -112.7850 237° Southwest 473 544 38,000  Level FlightAware
04:54PM 37.0540 -112.8800 237° Southwest 475 547 38,000  Level FlightAware
04:54PM 37.0070 -112.9700 237° Southwest 477 549 38,000  Level FlightAware
04:55PM 36.9470 -113.0840 237° Southwest 478 550 38,000  Level FlightAware
04:56PM 36.8990 -113.1770 237° Southwest 479 551 38,000  Level FlightAware
04:56PM 36.8500 -113.2720 237° Southwest 480 552 38,000  Level FlightAware
04:57PM 36.7970 -113.3720 237° Southwest 482 555 38,000  Level FlightAware
04:58PM 36.7520 -113.4550 236° Southwest 483 556 38,000  Level FlightAware
04:59PM 36.6940 -113.5670 237° Southwest 484 557 38,000  Level FlightAware
04:59PM 36.6440 -113.6600 236° Southwest 483 556 38,000  Level FlightAware
05:00PM 36.5900 -113.7620 237° Southwest 482 555 38,000  Level FlightAware
05:01PM 36.5360 -113.8640 237° Southwest 482 555 38,000  Level FlightAware
05:01PM 36.4890 -113.9540 237° Southwest 482 555 38,000  Level FlightAware
05:02PM 36.4370 -114.0480 236° Southwest 481 554 38,000  Level FlightAware
05:03PM 36.3900 -114.1380 237° Southwest 480 552 38,000  Level FlightAware
05:03PM 36.3410 -114.2270 236° Southwest 478 550 38,000  Level FlightAware
05:04PM 36.2890 -114.3250 237° Southwest 478 550 38,000  Level FlightAware
05:05PM 36.2480 -114.4000 236° Southwest 477 549 38,000  Level FlightAware
05:05PM 36.1960 -114.4950 236° Southwest 476 548 38,000  Level FlightAware
05:06PM 36.1450 -114.5900 236° Southwest 474 545 38,000  Level FlightAware
05:07PM 36.0900 -114.6910 236° Southwest 472 543 38,000  Level FlightAware
05:07PM 36.0400 -114.7830 236° Southwest 470 541 38,000  Level FlightAware
05:08PM 35.9960 -114.8810 241° Southwest 468 539 38,000  Level FlightAware
05:09PM 35.9530 -114.9770 241° Southwest 469 540 38,000  Level FlightAware
05:09PM 35.9130 -115.0660 241° Southwest 470 541 38,000  Level FlightAware
05:10PM 35.8600 -115.1460 231° Southwest 470 541 38,000  Level FlightAware
05:11PM 35.7460 -115.2000 201° Southwest 473 544 38,000  Level FlightAware
05:12PM 35.6580 -115.2090 185° South 473 544 38,000  Level FlightAware
05:12PM 35.5630 -115.2180 184° South 472 543 38,000  Level FlightAware
05:13PM 35.4730 -115.2270 185° South 473 544 38,000  Level FlightAware
05:14PM 35.3820 -115.2370 185° South 474 545 38,000  Level FlightAware
05:15PM 35.2830 -115.2460 184° South 475 547 38,000  Level FlightAware
05:15PM 35.1920 -115.2540 184° South 476 548 38,000  Level FlightAware
05:16PM 35.1020 -115.2630 185° South 476 548 38,000  Level FlightAware
05:16PM 35.0410 -115.2880 199° South 477 549 38,000  Level FlightAware
05:17PM 34.9800 -115.3640 226° Southwest 477 549 38,000  Level FlightAware
05:18PM 34.9280 -115.4680 239° Southwest 479 551 38,000  Level FlightAware
05:18PM 34.8940 -115.5400 240° Southwest 480 552 38,000  Level FlightAware
05:19PM 34.8390 -115.6520 239° Southwest 481 554 38,000 -240 Level FlightAware
05:20PM 34.7770 -115.7780 239° Southwest 481 554 37,600 -1,140 Descending FlightAware
05:21PM 34.7410 -115.8520 239° Southwest 480 552 36,500 -900 Descending FlightAware
05:21PM 34.7010 -115.9330 239° Southwest 480 552 36,500 -2,520 Level FlightAware
05:22PM 34.6420 -116.0520 239° Southwest 478 550 33,000 -3,360 Descending FlightAware
05:23PM 34.5960 -116.1410 238° Southwest 471 542 31,900 -1,740 Descending FlightAware
05:23PM 34.5470 -116.2420 240° Southwest 468 539 30,600 -1,800 Descending FlightAware
05:24PM 34.5070 -116.3210 238° Southwest 463 533 29,500 -780 Descending FlightAware
05:25PM 34.4600 -116.4120 238° Southwest 463 533 29,500  Level FlightAware
05:25PM 34.4250 -116.4800 238° Southwest 463 533 29,500  Level FlightAware
05:26PM 34.3900 -116.5470 238° Southwest 463 533 29,500  Level FlightAware
05:27PM 34.3430 -116.6390 238° Southwest 463 533 29,500  Level FlightAware
05:28PM 34.2960 -116.7300 238° Southwest 463 533 29,500 -5,460 Level FlightAware
05:28PM 34.2430 -116.8430 240° Southwest 423 487 21,700 -6,300 Descending FlightAware
05:29PM 34.1950 -116.9370 238° Southwest 415 478 20,200 -1,680 Descending FlightAware
05:30PM 34.1450 -117.0360 239° Southwest 397 457 19,000 -1,380 Descending FlightAware
05:31PM 34.1140 -117.0960 238° Southwest 387 445 18,300 -1,860 Descending FlightAware
05:31PM 34.0600 -117.2160 242° Southwest 385 443 16,300 -2,160 Descending FlightAware
05:32PM 34.0430 -117.2960 256° West 379 436 15,200 -1,740 Descending FlightAware
05:33PM 34.0360 -117.3730 264° West 358 412 14,100 -1,440 Descending FlightAware
05:33PM 34.0290 -117.4480 264° West 323 372 13,400 -1,680 Descending FlightAware
05:35PM 34.0170 -117.5810 264° West 328 377 10,900 -1,560 Descending FlightAware
05:35PM 34.0090 -117.6600 263° West 310 357 10,300 -780 Descending FlightAware
05:36PM 34.0020 -117.7300 263° West 307 353 9,800 -780 Descending FlightAware
05:36PM 34.0000 -117.7530 264° West 307 353 9,600 -1,200 Descending FlightAware
05:37PM 33.9960 -117.8000 264° West 308 354 9,000 -1,320 Descending FlightAware
05:37PM 33.9940 -117.8160 261° West 307 353 8,800 -1,320 Descending FlightAware
05:37PM 33.9900 -117.8560 263° West 303 349 8,200 -1,260 Descending FlightAware
05:38PM 33.9830 -117.9210 263° West 296 341 7,500 -1,440 Descending FlightAware
05:38PM 33.9790 -117.9620 263° West 280 322 6,800 -1,500 Descending FlightAware
05:39PM 33.9780 -117.9810 266° West 272 313 6,500 -1,380 Descending FlightAware
05:39PM 33.9730 -118.0280 263° West 263 303 5,800 -1,440 Descending FlightAware
05:40PM 33.9690 -118.0730 264° West 262 302 5,100 -1,440 Descending FlightAware
05:40PM 33.9650 -118.1060 262° West 257 296 4,500 -1,440 Descending FlightAware
05:40PM 33.9610 -118.1500 264° West 236 272 3,800 -1,320 Descending FlightAware
05:41PM 33.9580 -118.1800 263° West 220 253 3,300 -1,020 Descending FlightAware
05:41PM 33.9540 -118.2130 262° West 206 237 2,900 -1,020 Descending FlightAware
05:42PM 33.9500 -118.2630 265° West 190 219 2,100 -1,080 Descending FlightAware
05:42PM 33.9480 -118.2780 261° West 180 207 1,900 -900 Descending FlightAware
05:43PM 33.9450 -118.3030 262° West 165 190 1,500 -900 Descending FlightAware
05:44PM 33.9400 -118.3530 263° West 156 180 700 -900 Descending FlightAware
05:44PM 33.9390 -118.3650 264° West 154 177 500 -360 Descending FlightAware
05:45PM 33.9360 -118.3930 263° West 155 178 400 -180 Descending FlightAware
05:53PM 33.9333 -118.4000 259° West  Level FlightAware Approximate
05:54PM 33.9425 -118.4081 259° West  Level Estimated
05:55PM 33.9425 -118.4081 259° West  Level Estimated
05:56PM 33.9425 -118.4081 259° West  Level Estimated
05:57PM 33.9425 -118.4081 259° West  Level Estimated
05:58PM 33.9425 -118.4081 259° West  Level Estimated
05:59PM 33.9425 -118.4081 259° West  Level Estimated
06:00PM 33.9425 -118.4081 259° West  Level Estimated
06:01PM 33.9425 -118.4081 259° West  Level Estimated